Time;durP1;ratioP1;P1;durP2;ratioP2;P2;SDS_P1;SDS_P2;PMS_P1;PMS_P2;Temp;Humidity;BMP_temperature;BMP_pressure;BME280_temperature;BME280_humidity;BME280_pressure;Samples;Min_cycle;Max_cycle;Signal;HPM_P1;HPM_P2
2023/05/11 00:00:50;;;;;;;0.90;0.90;;;;;;;10.87;83.42;97394.09;5024097;28;20111;-60
2023/05/11 00:03:17;;;;;;;0.90;0.90;;;;;;;10.85;84.03;97400.00;5025383;28;20582;-60
2023/05/11 00:05:48;;;;;;;0.90;0.90;;;;;;;10.92;83.27;97400.19;5025433;28;20534;-60
2023/05/11 00:08:15;;;;;;;0.82;0.82;;;;;;;10.95;83.47;97401.41;5025838;28;20077;-60
2023/05/11 00:10:46;;;;;;;0.95;0.95;;;;;;;10.79;84.33;97400.66;5025485;28;20437;-59
2023/05/11 00:13:13;;;;;;;0.90;0.90;;;;;;;10.68;84.13;97395.69;5025292;28;20046;-59
2023/05/11 00:15:40;;;;;;;0.80;0.80;;;;;;;7.62;84.16;96914.84;5025185;28;20079;-59
2023/05/11 00:18:07;;;;;;;0.90;0.90;;;;;;;10.37;83.90;97362.53;5023986;28;20138;-59
2023/05/11 00:20:33;;;;;;;0.90;0.90;;;;;;;10.67;83.98;97421.78;5025216;28;20053;-59
2023/05/11 00:23:01;;;;;;;0.80;0.80;;;;;;;10.20;83.83;97335.25;5025669;28;20115;-59
2023/05/11 00:25:27;;;;;;;0.80;0.80;;;;;;;10.67;84.00;97416.25;5023441;28;20053;-59
2023/05/11 00:27:54;;;;;;;0.85;0.85;;;;;;;10.31;83.83;97386.13;5023882;28;20120;-62
2023/05/11 00:30:21;;;;;;;0.80;0.80;;;;;;;10.56;83.83;97425.47;5024782;28;20554;-59
2023/05/11 00:32:50;;;;;;;0.90;0.90;;;;;;;10.21;83.93;97359.00;5023821;28;20049;-60
2023/05/11 00:35:17;;;;;;;0.80;0.80;;;;;;;10.49;84.09;97415.06;5025214;28;20131;-60
2023/05/11 00:37:43;;;;;;;0.90;0.90;;;;;;;10.38;84.56;97419.53;5025186;28;20053;-59
2023/05/11 00:40:10;;;;;;;0.82;0.82;;;;;;;10.11;84.58;97364.28;5024611;28;20418;-59
2023/05/11 00:42:37;;;;;;;0.80;0.80;;;;;;;10.18;85.25;97392.16;5025182;28;20149;-60
2023/05/11 00:45:04;;;;;;;0.88;0.88;;;;;;;10.54;85.16;97423.06;5024816;28;20474;-58
2023/05/11 00:47:31;;;;;;;0.80;0.80;;;;;;;10.57;85.34;97430.66;5024753;28;20145;-58
2023/05/11 00:49:58;;;;;;;0.80;0.80;;;;;;;10.49;84.83;97423.38;5023114;28;20049;-59
2023/05/11 00:52:25;;;;;;;0.70;0.70;;;;;;;10.59;84.62;97425.56;5023782;28;20084;-59
2023/05/11 00:54:52;;;;;;;0.90;0.90;;;;;;;10.00;84.54;97322.50;5024480;28;20053;-58
2023/05/11 00:57:20;;;;;;;0.85;0.85;;;;;;;10.72;84.67;97417.94;5024266;28;20065;-61
2023/05/11 00:59:48;;;;;;;0.90;0.90;;;;;;;10.82;83.58;97422.91;5023161;28;20060;-58
2023/05/11 01:02:16;;;;;;;0.80;0.80;;;;;;;10.57;85.02;97441.72;5024279;28;20136;-61
2023/05/11 01:04:43;;;;;;;0.80;0.80;;;;;;;10.65;86.00;97435.19;5024730;28;20050;-60
2023/05/11 01:07:22;;;;;;;0.90;0.90;;;;;;;10.30;86.31;97384.53;5024160;28;20061;-60
2023/05/11 01:10:14;;;;;;;0.85;0.85;;;;;;;10.64;86.61;97428.06;5024315;28;20092;-59
2023/05/11 01:12:53;;;;;;;0.90;0.90;;;;;;;10.59;86.86;97435.84;5024829;28;20045;-59
2023/05/11 01:15:38;;;;;;;0.73;0.73;;;;;;;10.59;86.03;97436.63;5024320;28;20136;-60
2023/05/11 01:18:17;;;;;;;0.80;0.80;;;;;;;10.51;86.94;97434.09;5024237;28;20061;-59
2023/05/11 01:20:46;;;;;;;0.80;0.80;;;;;;;10.42;87.29;97431.50;5024175;28;20104;-59
2023/05/11 01:23:39;;;;;;;0.80;0.80;;;;;;;10.58;86.82;97429.50;5023026;28;20080;-59
2023/05/11 01:26:28;;;;;;;0.80;0.80;;;;;;;10.37;86.92;97428.19;5020333;28;20053;-59
2023/05/11 01:29:06;;;;;;;0.80;0.80;;;;;;;9.62;90.16;97424.69;5022964;28;20115;-59
2023/05/11 01:31:34;;;;;;;0.80;0.80;;;;;;;9.30;92.71;97434.06;5023931;28;20053;-58
2023/05/11 01:34:05;;;;;;;0.70;0.70;;;;;;;9.43;94.67;97448.63;5023967;28;20069;-59
2023/05/11 01:36:35;;;;;;;0.80;0.80;;;;;;;9.37;93.01;97405.81;5024214;28;20145;-60
2023/05/11 01:39:08;;;;;;;0.70;0.70;;;;;;;9.86;91.07;97435.63;5024212;28;20496;-59
2023/05/11 01:41:38;;;;;;;0.80;0.80;;;;;;;9.98;90.17;97443.81;5022612;28;20084;-59
2023/05/11 01:44:08;;;;;;;0.80;0.80;;;;;;;9.80;89.55;97397.50;5023694;28;20049;-59
2023/05/11 01:46:35;;;;;;;0.80;0.80;;;;;;;9.76;89.75;97397.41;5023605;28;20450;-60
2023/05/11 01:49:08;;;;;;;0.82;0.82;;;;;;;10.15;88.15;97443.50;5023944;28;20497;-61
2023/05/11 01:51:36;;;;;;;0.80;0.80;;;;;;;10.21;87.68;97468.94;5024382;28;20085;-59
2023/05/11 01:54:06;;;;;;;0.90;0.90;;;;;;;10.29;87.16;97443.84;5024044;28;20142;-59
2023/05/11 01:56:35;;;;;;;0.85;0.85;;;;;;;9.56;87.23;97309.97;5022582;28;20088;-62
2023/05/11 01:59:02;;;;;;;0.80;0.80;;;;;;;10.44;86.89;97440.25;5023779;28;20076;-59
2023/05/11 02:01:30;;;;;;;0.90;0.90;;;;;;;10.46;86.32;97443.44;5023077;28;20077;-59
2023/05/11 02:04:01;;;;;;;0.80;0.80;;;;;;;10.53;85.47;97440.84;5026202;28;20065;-59
2023/05/11 02:06:28;;;;;;;0.70;0.70;;;;;;;10.04;84.73;97353.00;5026303;28;20571;-59
2023/05/11 02:08:57;;;;;;;0.85;0.85;;;;;;;10.15;85.92;97410.28;5027620;28;20506;-60
2023/05/11 02:11:26;;;;;;;0.80;0.80;;;;;;;10.39;85.99;97437.75;5027697;28;20046;-59
2023/05/11 02:13:55;;;;;;;0.80;0.80;;;;;;;10.31;86.58;97441.50;5027961;28;20084;-60
2023/05/11 02:16:26;;;;;;;0.82;0.82;;;;;;;10.16;86.95;97422.16;5027440;28;20518;-60
2023/05/11 02:18:54;;;;;;;0.80;0.80;;;;;;;9.28;89.51;97325.81;5026018;28;20131;-59
2023/05/11 02:21:21;;;;;;;0.80;0.80;;;;;;;10.22;89.11;97432.59;5025880;28;20057;-59
2023/05/11 02:23:50;;;;;;;0.90;0.90;;;;;;;10.30;88.25;97434.38;5027315;28;20152;-59
2023/05/11 02:26:16;;;;;;;0.70;0.70;;;;;;;10.40;87.23;97427.50;5027519;28;20097;-60
2023/05/11 02:28:43;;;;;;;0.80;0.80;;;;;;;10.45;86.96;97430.78;5027710;28;20061;-59
2023/05/11 02:31:16;;;;;;;0.80;0.80;;;;;;;10.50;85.71;97422.19;5014368;28;20060;-59
2023/05/11 02:33:46;;;;;;;0.82;0.82;;;;;;;10.53;85.65;97426.19;5025882;28;20103;-61
2023/05/11 02:36:19;;;;;;;0.80;0.80;;;;;;;10.58;84.83;97435.03;5027384;28;20528;-59
2023/05/11 02:38:47;;;;;;;0.88;0.88;;;;;;;10.65;84.89;97446.28;5026919;28;20123;-59
2023/05/11 02:41:20;;;;;;;0.90;0.90;;;;;;;10.18;84.84;97381.88;5027039;28;20091;-59
2023/05/11 02:43:50;;;;;;;0.80;0.80;;;;;;;10.08;86.90;97435.03;5024454;28;20084;-61
2023/05/11 02:46:20;;;;;;;0.80;0.80;;;;;;;9.78;88.51;97422.75;5026110;28;20049;-59
2023/05/11 02:48:53;;;;;;;0.88;0.88;;;;;;;10.08;88.79;97432.25;5023946;28;20053;-59
2023/05/11 02:51:23;;;;;;;0.80;0.80;;;;;;;10.29;88.30;97427.22;5026024;28;20053;-59
2023/05/11 02:53:54;;;;;;;0.90;0.90;;;;;;;9.99;86.22;97367.94;5025586;28;20089;-59
2023/05/11 02:56:23;;;;;;;0.80;0.80;;;;;;;10.49;85.93;97437.22;5025878;28;20053;-59
2023/05/11 02:58:50;;;;;;;0.80;0.80;;;;;;;10.53;85.19;97437.28;5026390;28;20057;-59
2023/05/11 03:01:17;;;;;;;0.80;0.80;;;;;;;10.52;84.96;97442.03;5041775;28;20107;-59
2023/05/11 03:03:43;;;;;;;0.85;0.85;;;;;;;10.52;84.60;97430.94;5026245;28;20355;-59
2023/05/11 03:06:10;;;;;;;0.70;0.70;;;;;;;10.55;85.39;97430.22;5026926;28;20061;-59
2023/05/11 03:08:37;;;;;;;0.80;0.80;;;;;;;10.30;85.22;97381.78;5025198;28;20503;-59
2023/05/11 03:11:04;;;;;;;0.80;0.80;;;;;;;10.67;84.20;97432.06;5025326;28;20077;-59
2023/05/11 03:13:32;;;;;;;0.80;0.80;;;;;;;10.63;83.93;97443.09;5041002;28;20111;-58
2023/05/11 03:16:01;;;;;;;0.80;0.80;;;;;;;10.61;83.90;97433.50;5026611;28;20503;-60
2023/05/11 03:18:28;;;;;;;0.90;0.90;;;;;;;10.70;84.02;97426.59;5026420;28;20076;-59
2023/05/11 03:20:59;;;;;;;0.90;0.90;;;;;;;10.35;83.89;97392.53;5025411;28;20449;-58
2023/05/11 03:23:28;;;;;;;0.90;0.90;;;;;;;10.70;84.45;97434.13;5026480;28;20053;-58
2023/05/11 03:25:56;;;;;;;0.88;0.88;;;;;;;10.75;84.64;97427.50;5026321;28;20060;-59
2023/05/11 03:28:24;;;;;;;0.90;0.90;;;;;;;10.80;84.97;97441.06;5026099;28;20049;-61
2023/05/11 03:30:53;;;;;;;0.80;0.80;;;;;;;10.84;85.78;97436.41;5026193;28;20084;-58
2023/05/11 03:33:19;;;;;;;0.80;0.80;;;;;;;10.89;85.91;97427.81;5025965;28;20108;-59
2023/05/11 03:35:48;;;;;;;0.90;0.90;;;;;;;10.48;86.71;97388.50;5025976;28;20083;-58
2023/05/11 03:38:16;;;;;;;0.80;0.80;;;;;;;10.93;86.31;97437.81;5025771;28;20140;-60
2023/05/11 03:40:44;;;;;;;0.80;0.80;;;;;;;10.96;86.63;97433.50;5024521;28;20498;-59
2023/05/11 03:43:15;;;;;;;0.85;0.85;;;;;;;10.95;86.59;97432.72;5025846;28;20053;-60
2023/05/11 03:45:43;;;;;;;0.90;0.90;;;;;;;11.00;86.14;97439.94;5024434;28;20045;-59
2023/05/11 03:48:11;;;;;;;0.95;0.95;;;;;;;10.90;86.05;97443.25;5025774;28;20496;-59
2023/05/11 03:50:38;;;;;;;0.80;0.80;;;;;;;10.66;86.44;97392.50;5025498;28;20107;-60
2023/05/11 03:53:05;;;;;;;0.80;0.80;;;;;;;11.27;85.09;97439.72;5026015;28;20061;-59
2023/05/11 03:55:32;;;;;;;0.90;0.90;;;;;;;11.21;83.78;97412.63;5025579;28;20526;-59
2023/05/11 03:57:58;;;;;;;1.00;1.00;;;;;;;11.59;83.42;97451.44;5025533;28;20111;-60
2023/05/11 04:00:29;;;;;;;0.88;0.88;;;;;;;11.85;81.91;97448.81;5025519;28;20064;-59
2023/05/11 04:02:56;;;;;;;1.00;1.00;;;;;;;11.84;80.22;97448.00;5025033;28;20053;-59
2023/05/11 04:05:23;;;;;;;0.95;0.95;;;;;;;11.73;79.58;97449.78;5025639;28;20053;-59
2023/05/11 04:07:50;;;;;;;0.95;0.95;;;;;;;11.87;79.20;97452.03;5024786;28;20481;-59
2023/05/11 04:10:17;;;;;;;0.90;0.90;;;;;;;11.69;77.58;97417.59;5025603;28;20127;-60
2023/05/11 04:12:44;;;;;;;0.90;0.90;;;;;;;12.17;77.04;97462.09;5024151;28;20076;-59
2023/05/11 04:15:10;;;;;;;0.90;0.90;;;;;;;12.11;76.53;97454.44;5035471;28;20223;-61
2023/05/11 04:17:37;;;;;;;0.98;0.98;;;;;;;12.04;76.11;97462.66;5023992;28;20522;-59
2023/05/11 04:20:05;;;;;;;1.00;1.00;;;;;;;11.81;77.04;97453.47;5025022;28;20436;-59
2023/05/11 04:22:31;;;;;;;1.00;1.00;;;;;;;11.85;76.79;97457.16;5025504;28;20053;-58
2023/05/11 04:24:58;;;;;;;1.10;1.10;;;;;;;11.53;76.81;97394.66;5023424;28;20061;-60
2023/05/11 04:27:25;;;;;;;1.05;1.05;;;;;;;11.88;76.51;97445.31;5022887;28;20594;-58
2023/05/11 04:29:51;;;;;;;0.95;0.95;;;;;;;12.10;76.42;97466.72;5023855;28;20053;-58
2023/05/11 04:32:18;;;;;;;1.00;1.00;;;;;;;12.03;76.69;97461.03;5023862;28;20045;-59
2023/05/11 04:34:44;;;;;;;0.90;0.90;;;;;;;12.13;75.71;97465.97;5024848;28;20183;-58
2023/05/11 04:37:11;;;;;;;0.90;0.90;;;;;;;12.10;75.06;97466.72;5024676;28;20448;-60
2023/05/11 04:39:38;;;;;;;1.00;1.00;;;;;;;11.98;76.29;97462.13;5024466;28;20061;-59
2023/05/11 04:42:04;;;;;;;1.02;1.02;;;;;;;11.97;76.00;97465.28;5025110;28;20405;-59
2023/05/11 04:44:31;;;;;;;0.90;0.90;;;;;;;11.89;76.42;97469.09;5024751;28;20122;-61
2023/05/11 04:46:58;;;;;;;1.00;1.00;;;;;;;11.84;76.68;97458.28;5023343;28;20057;-59
2023/05/11 04:49:25;;;;;;;1.00;1.00;;;;;;;11.61;76.64;97451.88;5021629;28;20081;-59
2023/05/11 04:51:52;;;;;;;0.90;0.90;;;;;;;11.84;76.33;97458.28;5024937;28;20470;-60
2023/05/11 04:54:18;;;;;;;0.90;0.90;;;;;;;11.83;75.98;97440.03;5024192;28;20606;-60
2023/05/11 04:56:45;;;;;;;1.00;1.00;;;;;;;11.48;75.57;97409.63;5024574;28;20099;-59
2023/05/11 04:59:12;;;;;;;0.90;0.90;;;;;;;12.13;75.11;97465.97;5024303;28;20574;-60
2023/05/11 05:01:38;;;;;;;1.00;1.00;;;;;;;12.07;74.93;97475.78;5024456;28;20081;-60
2023/05/11 05:04:05;;;;;;;1.00;1.00;;;;;;;12.12;73.96;97469.94;5024270;28;20092;-59
2023/05/11 05:06:32;;;;;;;1.00;1.00;;;;;;;12.33;73.67;97475.84;5024306;28;20049;-59
2023/05/11 05:08:59;;;;;;;0.98;0.98;;;;;;;12.26;74.01;97464.63;5022879;28;20041;-59
2023/05/11 05:11:25;;;;;;;0.90;0.90;;;;;;;12.09;72.80;97388.16;5023186;28;20065;-62
2023/05/11 05:13:53;;;;;;;1.00;1.00;;;;;;;12.61;72.07;97464.41;5023835;28;20084;-58
2023/05/11 05:16:20;;;;;;;1.13;1.13;;;;;;;12.72;71.36;97465.38;5004773;28;20127;-61
2023/05/11 05:18:46;;;;;;;0.90;0.90;;;;;;;12.44;72.79;97465.72;5002876;28;20049;-59
2023/05/11 05:21:13;;;;;;;1.00;1.00;;;;;;;12.55;71.33;97469.47;5004874;28;20423;-59
2023/05/11 05:23:40;;;;;;;0.90;0.90;;;;;;;12.31;72.15;97456.00;5004893;28;20084;-58
2023/05/11 05:26:06;;;;;;;1.02;1.02;;;;;;;12.46;70.52;97441.16;5004359;28;20132;-62
2023/05/11 05:28:34;;;;;;;0.98;0.98;;;;;;;12.93;69.48;97469.25;5003318;28;20057;-60
2023/05/11 05:31:01;;;;;;;1.05;1.05;;;;;;;12.83;69.59;97472.72;5004441;28;20046;-59
2023/05/11 05:33:28;;;;;;;1.08;1.08;;;;;;;12.34;67.78;97398.88;5003295;28;20077;-60
2023/05/11 05:35:54;;;;;;;1.10;1.10;;;;;;;12.83;67.16;97478.25;5003775;28;20058;-60
2023/05/11 05:38:21;;;;;;;1.10;1.10;;;;;;;12.51;66.85;97449.16;5002937;28;20507;-60
2023/05/11 05:40:48;;;;;;;0.95;0.95;;;;;;;11.79;68.58;97489.16;5003807;28;20061;-59
2023/05/11 05:43:14;;;;;;;0.93;0.93;;;;;;;11.60;71.68;97428.09;5004215;28;20050;-60
2023/05/11 05:45:41;;;;;;;0.90;0.90;;;;;;;12.16;69.32;97454.13;5013262;28;20682;-61
2023/05/11 05:48:08;;;;;;;1.00;1.00;;;;;;;12.49;69.96;97484.84;5028816;28;20053;-58
2023/05/11 05:50:36;;;;;;;1.00;1.00;;;;;;;12.24;67.99;97450.31;5021870;28;20084;-65
2023/05/11 05:53:03;;;;;;;1.23;1.23;;;;;;;12.12;66.74;97342.19;5021175;28;20099;-61
2023/05/11 05:55:29;;;;;;;1.00;1.00;;;;;;;12.80;66.29;97462.34;5021748;28;20045;-58
2023/05/11 05:57:56;;;;;;;1.08;1.08;;;;;;;12.14;66.71;97378.72;5020875;28;20073;-58
2023/05/11 06:00:23;;;;;;;1.10;1.10;;;;;;;13.22;65.87;97490.78;5017745;28;20336;-59
2023/05/11 06:02:49;;;;;;;1.00;1.00;;;;;;;11.72;63.99;97167.09;5020410;28;20053;-58
2023/05/11 06:05:16;;;;;;;1.10;1.10;;;;;;;13.93;62.43;97488.84;5033365;28;20056;-65
2023/05/11 06:07:43;;;;;;;1.20;1.20;;;;;;;14.24;60.88;97485.63;5020081;28;20591;-59
2023/05/11 06:10:20;;;;;;;1.20;1.20;;;;;;;13.87;59.47;97455.00;5015324;28;20245;-59
2023/05/11 06:12:46;;;;;;;1.30;1.30;;;;;;;14.36;59.01;97493.72;5022234;28;20069;-60
2023/05/11 06:15:13;;;;;;;1.10;1.10;;;;;;;14.09;58.24;97445.66;5023175;28;20174;-61
2023/05/11 06:17:40;;;;;;;1.20;1.20;;;;;;;14.15;58.21;97454.47;5020089;28;20076;-58
2023/05/11 06:20:07;;;;;;;1.20;1.20;;;;;;;14.09;59.36;97495.00;5021966;28;20057;-65
2023/05/11 06:22:34;;;;;;;1.23;1.23;;;;;;;13.83;59.01;97447.78;5023503;28;20577;-61
2023/05/11 06:25:01;;;;;;;1.20;1.20;;;;;;;13.76;59.41;97436.56;5023616;28;20085;-58
2023/05/11 06:27:28;;;;;;;1.13;1.13;;;;;;;14.06;58.79;97496.59;5020989;28;20053;-58
2023/05/11 06:29:55;;;;;;;1.20;1.20;;;;;;;13.13;61.43;97504.16;5020958;28;20215;-67
2023/05/11 06:32:21;;;;;;;1.20;1.20;;;;;;;13.12;62.81;97491.41;5022328;28;20588;-59
2023/05/11 06:34:48;;;;;;;1.10;1.10;;;;;;;13.10;62.08;97440.91;5021722;28;20046;-61
2023/05/11 06:37:19;;;;;;;1.00;1.00;;;;;;;13.68;60.33;97492.19;5013531;28;20143;-60
2023/05/11 06:39:47;;;;;;;1.20;1.20;;;;;;;14.08;59.67;97504.56;5018348;28;20136;-61
2023/05/11 06:42:14;;;;;;;0.98;0.98;;;;;;;13.49;60.47;97495.13;5019620;28;20056;-59
2023/05/11 06:44:40;;;;;;;1.05;1.05;;;;;;;13.61;61.97;97492.09;5022097;28;20052;-67
2023/05/11 06:47:07;;;;;;;1.10;1.10;;;;;;;12.28;64.68;97500.38;5021554;28;20501;-60
2023/05/11 06:49:34;;;;;;;0.90;0.90;;;;;;;12.03;67.05;97474.91;5022448;28;20054;-59
2023/05/11 06:52:01;;;;;;;1.00;1.00;;;;;;;12.11;65.25;97449.69;5022943;28;20131;-57
2023/05/11 06:54:27;;;;;;;1.00;1.00;;;;;;;12.82;63.88;97493.31;5025803;28;20520;-63
2023/05/11 06:56:54;;;;;;;1.00;1.00;;;;;;;11.68;65.80;97499.25;5025207;28;20085;-57
2023/05/11 06:59:21;;;;;;;1.00;1.00;;;;;;;11.90;65.46;97476.28;5026048;28;20119;-57
2023/05/11 07:01:47;;;;;;;0.90;0.90;;;;;;;11.71;65.57;97507.63;5024663;28;20112;-58
2023/05/11 07:04:14;;;;;;;0.90;0.90;;;;;;;11.71;66.89;97493.75;5022817;28;20081;-59
2023/05/11 07:06:41;;;;;;;1.00;1.00;;;;;;;11.68;64.78;97400.13;5025028;28;20158;-61
2023/05/11 07:09:07;;;;;;;0.90;0.90;;;;;;;12.37;66.26;97487.84;5025418;28;20495;-66
2023/05/11 07:11:34;;;;;;;0.90;0.90;;;;;;;12.72;63.73;97427.28;5024854;28;20049;-59
2023/05/11 07:14:01;;;;;;;1.10;1.10;;;;;;;13.33;61.34;97491.72;5025964;28;20073;-61
2023/05/11 07:16:27;;;;;;;0.98;0.98;;;;;;;12.84;63.11;97490.97;5025545;28;20050;-57
2023/05/11 07:18:55;;;;;;;0.90;0.90;;;;;;;12.50;63.67;97480.09;5026538;28;20050;-60
2023/05/11 07:21:22;;;;;;;1.08;1.08;;;;;;;12.15;65.15;97485.88;5023067;28;20057;-68
2023/05/11 07:23:48;;;;;;;0.90;0.90;;;;;;;12.38;65.80;97492.22;5023169;28;20057;-61
2023/05/11 07:26:15;;;;;;;1.10;1.10;;;;;;;13.25;63.05;97478.91;5024221;28;20053;-70
2023/05/11 07:28:42;;;;;;;1.05;1.05;;;;;;;12.42;65.65;97478.38;5022447;28;20049;-59
2023/05/11 07:31:08;;;;;;;1.00;1.00;;;;;;;11.99;64.19;97399.09;5019704;28;20107;-71
2023/05/11 07:33:37;;;;;;;1.00;1.00;;;;;;;12.80;63.16;97479.03;5019956;28;20056;-66
2023/05/11 07:36:05;;;;;;;1.02;1.02;;;;;;;12.70;63.03;97451.84;5026116;28;20048;-62
2023/05/11 07:38:32;;;;;;;1.08;1.08;;;;;;;12.72;64.42;97480.09;5022128;28;20578;-63
2023/05/11 07:40:59;;;;;;;1.10;1.10;;;;;;;12.19;63.08;97364.50;5024428;28;20057;-61
2023/05/11 07:43:25;;;;;;;1.27;1.27;;;;;;;13.35;61.91;97444.84;5024879;28;20053;-62
2023/05/11 07:45:52;;;;;;;1.00;1.00;;;;;;;12.59;63.07;97384.19;5025739;28;20111;-74
2023/05/11 07:48:19;;;;;;;1.00;1.00;;;;;;;13.74;61.90;97459.22;5024585;28;20057;-67
2023/05/11 07:50:45;;;;;;;1.30;1.30;;;;;;;14.20;59.26;97462.47;5022134;28;20057;-64
2023/05/11 07:53:12;;;;;;;1.10;1.10;;;;;;;13.59;60.82;97433.19;5024492;28;20436;-67
2023/05/11 07:55:39;;;;;;;1.10;1.10;;;;;;;13.52;61.38;97477.66;5022870;28;20053;-59
2023/05/11 07:58:05;;;;;;;1.00;1.00;;;;;;;13.86;60.94;97453.41;5024002;28;20495;-71
2023/05/11 08:00:32;;;;;;;1.02;1.02;;;;;;;13.64;61.46;97449.56;5021482;28;20049;-60
2023/05/11 08:03:00;;;;;;;1.30;1.30;;;;;;;14.05;59.05;97488.63;5021908;28;20080;-61
2023/05/11 08:05:29;;;;;;;1.00;1.00;;;;;;;12.49;62.85;97473.75;5021814;28;20092;-65
2023/05/11 08:07:56;;;;;;;1.00;1.00;;;;;;;12.61;63.12;97454.09;5007170;28;20054;-58
2023/05/11 08:10:22;;;;;;;1.05;1.05;;;;;;;12.78;62.02;97481.38;5013824;28;20748;-63
2023/05/11 08:12:49;;;;;;;1.10;1.10;;;;;;;13.07;62.39;97436.13;5022988;28;20056;-61
2023/05/11 08:15:16;;;;;;;1.10;1.10;;;;;;;13.23;60.43;97431.16;5021424;28;20121;-61
2023/05/11 08:17:44;;;;;;;1.00;1.00;;;;;;;12.96;60.39;97375.97;5012669;28;20132;-60
2023/05/11 08:20:12;;;;;;;1.20;1.20;;;;;;;13.59;61.51;97476.94;5004765;28;20508;-66
2023/05/11 08:22:38;;;;;;;1.10;1.10;;;;;;;13.94;60.11;97477.34;5005140;28;20069;-67
2023/05/11 08:25:06;;;;;;;1.20;1.20;;;;;;;13.92;59.51;97478.91;5013934;28;20092;-63
2023/05/11 08:27:33;;;;;;;1.13;1.13;;;;;;;13.92;60.82;97478.91;5024426;28;20046;-63
2023/05/11 08:29:59;;;;;;;1.23;1.23;;;;;;;14.43;59.29;97471.50;5022994;28;20057;-63
2023/05/11 08:32:29;;;;;;;1.27;1.27;;;;;;;14.17;58.03;97393.59;5024082;28;20532;-62
2023/05/11 08:34:56;;;;;;;1.30;1.30;;;;;;;14.06;56.95;97401.06;5016317;28;20509;-61
2023/05/11 08:37:23;;;;;;;1.10;1.10;;;;;;;13.70;60.32;97386.78;5020638;28;20144;-68
2023/05/11 08:39:50;;;;;;;1.45;1.45;;;;;;;14.71;56.69;97449.41;5024099;28;20053;-62
2023/05/11 08:42:18;;;;;;;1.27;1.27;;;;;;;15.05;56.59;97436.88;5019083;28;20595;-65
2023/05/11 08:44:46;;;;;;;1.30;1.30;;;;;;;14.42;59.71;97475.47;5023576;28;20061;-63
2023/05/11 08:47:14;;;;;;;1.17;1.17;;;;;;;14.32;60.50;97471.38;5024210;28;20127;-62
2023/05/11 08:49:44;;;;;;;1.30;1.30;;;;;;;14.94;58.54;97472.28;5022304;28;20129;-72
2023/05/11 08:52:12;;;;;;;1.25;1.25;;;;;;;15.33;56.50;97475.31;5021838;28;20434;-62
2023/05/11 08:54:39;;;;;;;1.15;1.15;;;;;;;14.32;56.13;97367.50;5022711;28;20053;-62
2023/05/11 08:57:06;;;;;;;1.35;1.35;;;;;;;15.64;53.54;97442.00;5018160;28;20121;-67
2023/05/11 08:59:33;;;;;;;1.40;1.40;;;;;;;15.96;53.93;97506.34;5004136;28;20064;-62
2023/05/11 09:02:01;;;;;;;1.50;1.50;;;;;;;15.00;54.40;97373.09;5006681;28;20135;-59
2023/05/11 09:04:29;;;;;;;1.33;1.33;;;;;;;14.67;56.71;97448.56;5022639;28;20053;-65
2023/05/11 09:06:56;;;;;;;1.30;1.30;;;;;;;14.27;57.62;97395.72;5023280;28;20045;-66
2023/05/11 09:09:23;;;;;;;1.20;1.20;;;;;;;14.02;57.16;97437.22;5030331;28;20657;-68
2023/05/11 09:11:50;;;;;;;1.20;1.20;;;;;;;14.98;56.72;97453.59;5023938;28;20080;-70
2023/05/11 09:14:17;;;;;;;1.40;1.40;;;;;;;15.75;54.26;97428.88;5020558;28;20072;-65
2023/05/11 09:16:44;;;;;;;1.35;1.35;;;;;;;15.70;53.26;97423.66;5022101;28;20049;-62
2023/05/11 09:19:17;;;;;;;1.30;1.30;;;;;;;14.73;54.95;97449.84;5023449;28;20134;-63
2023/05/11 09:21:43;;;;;;;1.17;1.17;;;;;;;13.87;57.63;97370.63;5022757;28;20056;-60
2023/05/11 09:24:11;;;;;;;1.30;1.30;;;;;;;14.35;55.98;97336.06;5020412;28;20092;-60
2023/05/11 09:26:39;;;;;;;1.40;1.40;;;;;;;14.73;56.03;97414.38;5023519;28;20061;-60
2023/05/11 09:29:05;;;;;;;1.20;1.20;;;;;;;14.38;56.14;97407.75;5019678;28;20076;-69
2023/05/11 09:31:43;;;;;;;1.23;1.23;;;;;;;14.69;56.18;97440.63;5023753;28;20114;-69
2023/05/11 09:34:13;;;;;;;1.40;1.40;;;;;;;14.72;56.29;97373.75;5020571;28;20530;-60
2023/05/11 09:36:51;;;;;;;1.30;1.30;;;;;;;15.09;56.76;97437.72;5022073;28;20544;-68
2023/05/11 09:39:28;;;;;;;1.38;1.38;;;;;;;15.00;55.41;97403.81;5021273;28;20055;-61
2023/05/11 09:42:12;;;;;;;1.38;1.38;;;;;;;15.28;54.76;97401.13;5022317;28;20060;-59
2023/05/11 09:44:40;;;;;;;1.50;1.50;;;;;;;14.93;54.40;97284.59;5018850;28;20057;-62
2023/05/11 09:47:26;;;;;;;1.40;1.40;;;;;;;14.93;54.89;97367.47;5023094;28;20093;-71
2023/05/11 09:49:53;;;;;;;1.50;1.50;;;;;;;14.11;55.54;97333.84;5003993;28;20073;-67
2023/05/11 09:52:19;;;;;;;1.50;1.50;;;;;;;14.28;54.67;97264.34;5015838;28;20053;-66
2023/05/11 09:54:51;;;;;;;1.45;1.45;;;;;;;15.49;54.32;97412.41;5020969;28;20052;-65
2023/05/11 09:57:24;;;;;;;1.48;1.48;;;;;;;15.51;53.72;97414.78;5024100;28;20045;-60
2023/05/11 09:59:51;;;;;;;;;;;;;;;15.51;54.60;97414.78;5023475;28;20061;-60
2023/05/11 10:02:18;;;;;;;1.27;1.27;;;;;;;15.68;55.14;97412.06;5022043;28;19980;-62
2023/05/11 10:04:45;;;;;;;1.38;1.38;;;;;;;15.47;55.24;97414.81;5009216;28;20500;-63
2023/05/11 10:07:26;;;;;;;1.50;1.50;;;;;;;15.69;54.69;97418.47;5023039;28;20061;-66
2023/05/11 10:09:55;;;;;;;1.38;1.38;;;;;;;14.76;56.25;97408.00;5021951;28;20091;-68
2023/05/11 10:12:24;;;;;;;1.40;1.40;;;;;;;15.43;55.33;97413.97;5023250;28;20049;-72
2023/05/11 10:14:57;;;;;;;1.40;1.40;;;;;;;15.56;54.12;97345.41;5023351;28;20104;-72
2023/05/11 10:17:24;;;;;;;1.40;1.40;;;;;;;15.35;53.96;97405.97;5023918;28;20053;-73
2023/05/11 10:19:54;;;;;;;1.30;1.30;;;;;;;15.69;54.49;97399.72;5023057;28;20080;-73
2023/05/11 10:22:21;;;;;;;1.40;1.40;;;;;;;15.92;52.68;97330.31;5022817;28;20136;-61
2023/05/11 10:24:49;;;;;;;1.75;1.75;;;;;;;16.78;50.19;97366.25;5025126;28;20041;-73
2023/05/11 10:27:17;;;;;;;1.67;1.67;;;;;;;17.38;48.56;97385.63;5027675;28;20049;-60
2023/05/11 10:29:44;;;;;;;1.67;1.67;;;;;;;17.47;48.15;97391.63;5027116;28;20504;-60
2023/05/11 10:32:11;;;;;;;1.50;1.50;;;;;;;17.83;47.92;97393.84;5025803;28;20065;-72
2023/05/11 10:34:40;;;;;;;1.60;1.60;;;;;;;18.08;46.29;97382.50;5025643;28;20089;-61
2023/05/11 10:37:08;;;;;;;1.90;1.90;;;;;;;18.20;46.31;97356.75;5026902;28;20089;-60
2023/05/11 10:39:39;;;;;;;1.65;1.65;;;;;;;18.20;45.62;97320.28;5026297;28;20143;-59
2023/05/11 10:42:21;;;;;;;1.75;1.75;;;;;;;18.52;45.42;97381.75;5026318;28;20111;-61
2023/05/11 10:45:15;;;;;;;1.85;1.85;;;;;;;18.66;44.45;97382.44;5025534;28;20057;-72
2023/05/11 10:48:05;;;;;;;1.98;1.98;;;;;;;18.41;46.06;97383.88;5014848;28;20156;-59
2023/05/11 10:50:40;;;;;;;1.80;1.80;;;;;;;18.50;45.35;97375.75;5023069;28;20049;-62
2023/05/11 10:53:36;;;;;;;1.73;1.73;;;;;;;18.79;44.86;97377.91;5020449;28;20377;-59
2023/05/11 10:56:34;;;;;;;2.00;2.00;;;;;;;19.01;45.26;97378.47;5021293;28;20045;-61
2023/05/11 10:59:20;;;;;;;2.08;2.08;;;;;;;18.88;44.73;97369.00;5023104;28;20057;-57
2023/05/11 11:01:57;;;;;;;1.90;1.90;;;;;;;19.27;42.73;97372.97;5025251;28;20136;-68
2023/05/11 11:04:40;;;;;;;1.80;1.80;;;;;;;19.26;43.45;97374.19;5025231;28;20427;-58
2023/05/11 11:07:07;;;;;;;1.77;1.77;;;;;;;18.27;45.03;97376.34;5043969;28;20059;-58
2023/05/11 11:09:56;;;;;;;1.77;1.77;;;;;;;17.34;47.30;97365.25;5046205;28;20053;-62
2023/05/11 11:12:25;;;;;;;1.67;1.67;;;;;;;17.63;47.04;97363.94;5018522;28;20599;-59
2023/05/11 11:14:59;;;;;;;1.75;1.75;;;;;;;17.84;46.46;97372.22;5022764;28;20045;-62
2023/05/11 11:17:30;;;;;;;1.70;1.70;;;;;;;18.47;45.41;97365.38;5024902;28;20048;-63
2023/05/11 11:20:00;;;;;;;1.70;1.70;;;;;;;18.10;44.65;97279.91;5025915;28;20490;-61
2023/05/11 11:22:37;;;;;;;1.90;1.90;;;;;;;18.80;43.94;97368.28;5026185;28;20623;-67
2023/05/11 11:25:05;;;;;;;1.98;1.98;;;;;;;18.98;44.60;97340.81;5024054;28;20041;-60
2023/05/11 11:27:44;;;;;;;1.90;1.90;;;;;;;19.54;43.62;97357.00;5023663;28;20053;-59
2023/05/11 11:30:18;;;;;;;1.90;1.90;;;;;;;19.58;42.86;97352.13;5020178;28;20451;-59
2023/05/11 11:32:51;;;;;;;;;;;;;;;19.42;43.50;97343.53;5032489;28;20046;-65
2023/05/11 11:35:40;;;;;;;2.00;2.00;;;;;;;19.31;44.29;97337.25;5023735;28;19932;-59
2023/05/11 11:38:09;;;;;;;1.90;1.90;;;;;;;19.44;42.98;97334.66;5021799;28;20060;-64
2023/05/11 11:40:37;;;;;;;1.80;1.80;;;;;;;19.34;42.80;97347.63;5024938;28;20057;-60
2023/05/11 11:43:20;;;;;;;1.52;1.52;;;;;;;19.26;42.23;97329.25;5025170;28;20049;-58